KAPG/APG METAR and TAF weather

Enter ICAO airport designator
Station Type Date Time Source
KAPG METAR 2019/06/26 21:45 UTC NOAA

KAPG 262145Z 23008KT 7SM SCT050 30/19 A3003


Station Type Date Time Source
KAPG Decoded METAR 2019/06/26 21:45 UTC NOAA

Phillips Army Air Field / Aberdeen, MD, United States (KAPG) 39-28N 076-10W
Jun 26, 2019 - 05:45 PM EDT / 2019.06.26 2145 UTC
Wind: from the SW (230 degrees) at 9 MPH (8 KT):0
Visibility: 7 mile(s):0
Sky conditions: partly cloudy
Temperature: 86 F (30 C)
Dew Point: 66 F (19 C)
Relative Humidity: 51%
Pressure (altimeter): 30.03 in. Hg (1016 hPa)
ob: KAPG 262145Z 23008KT 7SM SCT050 30/19 A3003
cycle: 22

Station Type Date Time Source
KAPG TAF UTC NOAA

Error!

Example: see airport list